sensor_id;sensor_type;location;lat;lon;timestamp;temperature;humidity
16491;DHT22;8356;51.214;3.270;2024-01-11T00:01:46;76.80;2227.20
16491;DHT22;8356;51.214;3.270;2024-01-11T00:04:13;76.90;2227.20
16491;DHT22;8356;51.214;3.270;2024-01-11T00:06:44;76.90;2227.20
16491;DHT22;8356;51.214;3.270;2024-01-11T00:09:11;76.90;2227.20
16491;DHT22;8356;51.214;3.270;2024-01-11T00:11:37;76.90;2227.20
16491;DHT22;8356;51.214;3.270;2024-01-11T00:14:02;76.90;2227.20
16491;DHT22;8356;51.214;3.270;2024-01-11T00:16:28;76.90;2227.20
16491;DHT22;8356;51.214;3.270;2024-01-11T00:18:53;52.10;2227.20
16491;DHT22;8356;51.214;3.270;2024-01-11T00:21:19;76.80;2227.20
16491;DHT22;8356;51.214;3.270;2024-01-11T00:23:45;52.10;2227.20
16491;DHT22;8356;51.214;3.270;2024-01-11T00:26:13;52.10;2227.20
16491;DHT22;8356;51.214;3.270;2024-01-11T00:28:39;52.00;2227.20
16491;DHT22;8356;51.214;3.270;2024-01-11T00:31:05;52.00;2227.20
16491;DHT22;8356;51.214;3.270;2024-01-11T00:33:30;76.80;2227.20
16491;DHT22;8356;51.214;3.270;2024-01-11T00:35:56;76.90;2227.20
16491;DHT22;8356;51.214;3.270;2024-01-11T00:38:22;76.90;2227.20
16491;DHT22;8356;51.214;3.270;2024-01-11T00:40:47;76.80;2227.20
16491;DHT22;8356;51.214;3.270;2024-01-11T00:43:14;76.80;2227.20
16491;DHT22;8356;51.214;3.270;2024-01-11T00:45:40;52.10;2227.20
16491;DHT22;8356;51.214;3.270;2024-01-11T00:48:05;76.80;2227.20
16491;DHT22;8356;51.214;3.270;2024-01-11T00:50:31;52.10;2227.20
16491;DHT22;8356;51.214;3.270;2024-01-11T00:52:57;52.00;2227.20
16491;DHT22;8356;51.214;3.270;2024-01-11T00:55:23;51.90;2227.20
16491;DHT22;8356;51.214;3.270;2024-01-11T00:57:49;51.90;2227.20
16491;DHT22;8356;51.214;3.270;2024-01-11T01:00:16;51.90;2227.20
16491;DHT22;8356;51.214;3.270;2024-01-11T01:02:41;51.70;2227.20
16491;DHT22;8356;51.214;3.270;2024-01-11T01:05:08;51.60;2227.20
16491;DHT22;8356;51.214;3.270;2024-01-11T01:07:33;51.60;2227.20
16491;DHT22;8356;51.214;3.270;2024-01-11T01:09:59;51.50;2227.20
16491;DHT22;8356;51.214;3.270;2024-01-11T01:12:24;51.60;2227.20
16491;DHT22;8356;51.214;3.270;2024-01-11T01:14:51;51.80;2227.20
16491;DHT22;8356;51.214;3.270;2024-01-11T01:17:17;51.90;2227.20
16491;DHT22;8356;51.214;3.270;2024-01-11T01:19:43;51.80;2227.20
16491;DHT22;8356;51.214;3.270;2024-01-11T01:22:09;51.80;2227.20
16491;DHT22;8356;51.214;3.270;2024-01-11T01:24:35;51.90;2227.20
16491;DHT22;8356;51.214;3.270;2024-01-11T01:27:00;51.70;2227.20
16491;DHT22;8356;51.214;3.270;2024-01-11T01:29:26;51.80;2227.20
16491;DHT22;8356;51.214;3.270;2024-01-11T01:31:52;51.60;2227.20
16491;DHT22;8356;51.214;3.270;2024-01-11T01:34:18;51.80;2227.20
16491;DHT22;8356;51.214;3.270;2024-01-11T01:36:44;52.00;2227.20
16491;DHT22;8356;51.214;3.270;2024-01-11T01:39:10;51.90;2227.20
16491;DHT22;8356;51.214;3.270;2024-01-11T01:41:35;52.10;2227.20
16491;DHT22;8356;51.214;3.270;2024-01-11T01:44:01;52.10;2227.20
16491;DHT22;8356;51.214;3.270;2024-01-11T01:46:27;76.80;2227.20
16491;DHT22;8356;51.214;3.270;2024-01-11T01:48:55;52.00;2227.20
16491;DHT22;8356;51.214;3.270;2024-01-11T01:51:22;51.90;2227.20
16491;DHT22;8356;51.214;3.270;2024-01-11T01:53:51;51.80;2227.20
16491;DHT22;8356;51.214;3.270;2024-01-11T01:56:19;51.80;2227.20
16491;DHT22;8356;51.214;3.270;2024-01-11T01:58:45;52.10;2227.20
16491;DHT22;8356;51.214;3.270;2024-01-11T02:01:12;52.10;2227.20
16491;DHT22;8356;51.214;3.270;2024-01-11T02:03:38;76.80;2227.20
16491;DHT22;8356;51.214;3.270;2024-01-11T02:06:05;52.10;2227.20
16491;DHT22;8356;51.214;3.270;2024-01-11T02:08:32;76.80;2227.20
16491;DHT22;8356;51.214;3.270;2024-01-11T02:10:59;76.90;2227.20
16491;DHT22;8356;51.214;3.270;2024-01-11T02:13:26;77.20;2227.20
16491;DHT22;8356;51.214;3.270;2024-01-11T02:15:51;76.80;2227.20
16491;DHT22;8356;51.214;3.270;2024-01-11T02:18:17;76.90;2227.20
16491;DHT22;8356;51.214;3.270;2024-01-11T02:20:43;76.90;2227.20
16491;DHT22;8356;51.214;3.270;2024-01-11T02:23:14;52.10;2227.20
16491;DHT22;8356;51.214;3.270;2024-01-11T02:25:42;52.00;2227.20
16491;DHT22;8356;51.214;3.270;2024-01-11T02:28:08;51.90;2227.20
16491;DHT22;8356;51.214;3.270;2024-01-11T02:30:34;51.80;2227.20
16491;DHT22;8356;51.214;3.270;2024-01-11T02:32:59;51.70;2227.20
16491;DHT22;8356;51.214;3.270;2024-01-11T02:35:27;51.90;2227.20
16491;DHT22;8356;51.214;3.270;2024-01-11T02:37:53;51.80;2227.20
16491;DHT22;8356;51.214;3.270;2024-01-11T02:40:19;51.90;2227.20
16491;DHT22;8356;51.214;3.270;2024-01-11T02:42:45;52.00;2227.20
16491;DHT22;8356;51.214;3.270;2024-01-11T02:45:11;52.10;2227.20
16491;DHT22;8356;51.214;3.270;2024-01-11T02:47:40;52.10;2227.20
16491;DHT22;8356;51.214;3.270;2024-01-11T02:50:06;51.90;2227.20
16491;DHT22;8356;51.214;3.270;2024-01-11T02:52:33;51.40;2227.20
16491;DHT22;8356;51.214;3.270;2024-01-11T02:54:58;51.50;2227.20
16491;DHT22;8356;51.214;3.270;2024-01-11T02:57:24;51.70;2227.20
16491;DHT22;8356;51.214;3.270;2024-01-11T02:59:51;51.80;2227.20
16491;DHT22;8356;51.214;3.270;2024-01-11T03:02:17;51.70;2227.20
16491;DHT22;8356;51.214;3.270;2024-01-11T03:04:43;51.50;2227.20
16491;DHT22;8356;51.214;3.270;2024-01-11T03:07:08;51.40;2227.20
16491;DHT22;8356;51.214;3.270;2024-01-11T03:09:34;51.40;2227.20
16491;DHT22;8356;51.214;3.270;2024-01-11T03:12:00;51.40;2227.20
16491;DHT22;8356;51.214;3.270;2024-01-11T03:14:25;51.60;2227.20
16491;DHT22;8356;51.214;3.270;2024-01-11T03:16:51;51.60;2227.20
16491;DHT22;8356;51.214;3.270;2024-01-11T03:19:17;51.60;2227.20
16491;DHT22;8356;51.214;3.270;2024-01-11T03:21:43;51.60;2227.20
16491;DHT22;8356;51.214;3.270;2024-01-11T03:24:09;51.70;2227.20
16491;DHT22;8356;51.214;3.270;2024-01-11T03:26:35;51.80;2227.20
16491;DHT22;8356;51.214;3.270;2024-01-11T03:29:01;51.70;2227.20
16491;DHT22;8356;51.214;3.270;2024-01-11T03:31:26;51.70;2227.20
16491;DHT22;8356;51.214;3.270;2024-01-11T03:33:52;51.70;2227.20
16491;DHT22;8356;51.214;3.270;2024-01-11T03:36:17;51.80;2227.20
16491;DHT22;8356;51.214;3.270;2024-01-11T03:38:43;51.80;2227.20
16491;DHT22;8356;51.214;3.270;2024-01-11T03:41:09;51.70;2227.20
16491;DHT22;8356;51.214;3.270;2024-01-11T03:43:36;51.30;2227.20
16491;DHT22;8356;51.214;3.270;2024-01-11T03:46:02;51.80;2227.20
16491;DHT22;8356;51.214;3.270;2024-01-11T03:48:28;51.60;2227.20
16491;DHT22;8356;51.214;3.270;2024-01-11T03:50:53;51.90;2227.20
16491;DHT22;8356;51.214;3.270;2024-01-11T03:53:19;51.90;2227.20
16491;DHT22;8356;51.214;3.270;2024-01-11T03:55:45;51.70;2227.20
16491;DHT22;8356;51.214;3.270;2024-01-11T03:58:11;51.80;2227.20
16491;DHT22;8356;51.214;3.270;2024-01-11T04:00:36;52.00;2227.20
16491;DHT22;8356;51.214;3.270;2024-01-11T04:03:02;52.10;2227.20
16491;DHT22;8356;51.214;3.270;2024-01-11T04:05:28;52.10;2227.20
16491;DHT22;8356;51.214;3.270;2024-01-11T04:07:54;52.10;2227.20
16491;DHT22;8356;51.214;3.270;2024-01-11T04:10:19;51.90;2227.20
16491;DHT22;8356;51.214;3.270;2024-01-11T04:12:45;51.70;2227.20
16491;DHT22;8356;51.214;3.270;2024-01-11T04:15:14;51.80;2227.20
16491;DHT22;8356;51.214;3.270;2024-01-11T04:17:40;51.90;2227.20
16491;DHT22;8356;51.214;3.270;2024-01-11T04:20:07;51.80;2227.20
16491;DHT22;8356;51.214;3.270;2024-01-11T04:22:34;51.80;2227.20
16491;DHT22;8356;51.214;3.270;2024-01-11T04:24:59;51.70;2227.20
16491;DHT22;8356;51.214;3.270;2024-01-11T04:27:25;51.20;2227.20
16491;DHT22;8356;51.214;3.270;2024-01-11T04:29:51;26.40;2201.60
16491;DHT22;8356;51.214;3.270;2024-01-11T04:32:17;51.20;2227.20
16491;DHT22;8356;51.214;3.270;2024-01-11T04:34:42;51.30;2227.20
16491;DHT22;8356;51.214;3.270;2024-01-11T04:37:08;51.30;2227.20
16491;DHT22;8356;51.214;3.270;2024-01-11T04:39:34;51.50;2227.20
16491;DHT22;8356;51.214;3.270;2024-01-11T04:41:59;51.70;2227.20
16491;DHT22;8356;51.214;3.270;2024-01-11T04:44:26;51.60;2227.20
16491;DHT22;8356;51.214;3.270;2024-01-11T04:46:52;51.70;2227.20
16491;DHT22;8356;51.214;3.270;2024-01-11T04:49:17;51.60;2227.20
16491;DHT22;8356;51.214;3.270;2024-01-11T04:51:43;51.50;2227.20
16491;DHT22;8356;51.214;3.270;2024-01-11T04:54:08;51.60;2227.20
16491;DHT22;8356;51.214;3.270;2024-01-11T04:56:34;51.70;2227.20
16491;DHT22;8356;51.214;3.270;2024-01-11T04:59:00;51.70;2227.20
16491;DHT22;8356;51.214;3.270;2024-01-11T05:01:25;51.80;2227.20
16491;DHT22;8356;51.214;3.270;2024-01-11T05:03:51;51.60;2227.20
16491;DHT22;8356;51.214;3.270;2024-01-11T05:06:18;51.50;2227.20
16491;DHT22;8356;51.214;3.270;2024-01-11T05:08:47;51.60;2227.20
16491;DHT22;8356;51.214;3.270;2024-01-11T05:11:17;26.40;2201.60
16491;DHT22;8356;51.214;3.270;2024-01-11T05:13:43;51.30;2227.20
16491;DHT22;8356;51.214;3.270;2024-01-11T05:18:45;26.50;2201.60
16491;DHT22;8356;51.214;3.270;2024-01-11T05:21:11;51.30;2227.20
16491;DHT22;8356;51.214;3.270;2024-01-11T05:23:37;51.30;2227.20
16491;DHT22;8356;51.214;3.270;2024-01-11T05:26:02;51.40;2227.20
16491;DHT22;8356;51.214;3.270;2024-01-11T05:28:28;51.60;2227.20
16491;DHT22;8356;51.214;3.270;2024-01-11T05:30:54;51.40;2227.20
16491;DHT22;8356;51.214;3.270;2024-01-11T05:33:20;51.60;2227.20
16491;DHT22;8356;51.214;3.270;2024-01-11T05:35:46;51.60;2227.20
16491;DHT22;8356;51.214;3.270;2024-01-11T05:38:11;51.60;2227.20
16491;DHT22;8356;51.214;3.270;2024-01-11T05:40:37;51.50;2227.20
16491;DHT22;8356;51.214;3.270;2024-01-11T05:43:03;51.40;2227.20
16491;DHT22;8356;51.214;3.270;2024-01-11T05:45:29;51.50;2227.20
16491;DHT22;8356;51.214;3.270;2024-01-11T05:47:54;51.40;2227.20
16491;DHT22;8356;51.214;3.270;2024-01-11T05:50:20;51.40;2227.20
16491;DHT22;8356;51.214;3.270;2024-01-11T05:52:46;51.40;2227.20
16491;DHT22;8356;51.214;3.270;2024-01-11T05:55:11;51.20;2227.20
16491;DHT22;8356;51.214;3.270;2024-01-11T05:57:37;26.30;2201.60
16491;DHT22;8356;51.214;3.270;2024-01-11T06:00:04;26.20;2201.60
16491;DHT22;8356;51.214;3.270;2024-01-11T06:02:30;26.10;2201.60
16491;DHT22;8356;51.214;3.270;2024-01-11T06:04:57;26.00;2201.60
16491;DHT22;8356;51.214;3.270;2024-01-11T06:07:22;26.10;2201.60
16491;DHT22;8356;51.214;3.270;2024-01-11T06:09:48;26.10;2201.60
16491;DHT22;8356;51.214;3.270;2024-01-11T06:12:14;26.20;2201.60
16491;DHT22;8356;51.214;3.270;2024-01-11T06:14:40;26.20;2201.60
16491;DHT22;8356;51.214;3.270;2024-01-11T06:17:06;26.40;2201.60
16491;DHT22;8356;51.214;3.270;2024-01-11T06:19:31;26.50;2201.60
16491;DHT22;8356;51.214;3.270;2024-01-11T06:21:58;51.40;2227.20
16491;DHT22;8356;51.214;3.270;2024-01-11T06:24:23;51.60;2227.20
16491;DHT22;8356;51.214;3.270;2024-01-11T06:26:49;51.60;2227.20
16491;DHT22;8356;51.214;3.270;2024-01-11T06:29:15;51.50;2227.20
16491;DHT22;8356;51.214;3.270;2024-01-11T06:31:40;51.60;2227.20
16491;DHT22;8356;51.214;3.270;2024-01-11T06:34:06;51.60;2227.20
16491;DHT22;8356;51.214;3.270;2024-01-11T06:36:32;51.70;2227.20
16491;DHT22;8356;51.214;3.270;2024-01-11T06:38:57;51.70;2227.20
16491;DHT22;8356;51.214;3.270;2024-01-11T06:41:23;51.80;2227.20
16491;DHT22;8356;51.214;3.270;2024-01-11T06:43:49;51.80;2227.20
16491;DHT22;8356;51.214;3.270;2024-01-11T06:46:19;51.90;2227.20
16491;DHT22;8356;51.214;3.270;2024-01-11T06:48:45;51.40;2227.20
16491;DHT22;8356;51.214;3.270;2024-01-11T06:51:15;51.40;2227.20
16491;DHT22;8356;51.214;3.270;2024-01-11T06:53:41;26.40;2201.60
16491;DHT22;8356;51.214;3.270;2024-01-11T06:56:17;26.50;2201.60
16491;DHT22;8356;51.214;3.270;2024-01-11T06:58:44;26.50;2201.60
16491;DHT22;8356;51.214;3.270;2024-01-11T07:01:10;26.40;2201.60
16491;DHT22;8356;51.214;3.270;2024-01-11T07:03:36;26.40;2201.60
16491;DHT22;8356;51.214;3.270;2024-01-11T07:06:02;26.30;2201.60
16491;DHT22;8356;51.214;3.270;2024-01-11T07:08:29;26.50;2201.60
16491;DHT22;8356;51.214;3.270;2024-01-11T07:10:54;51.40;2227.20
16491;DHT22;8356;51.214;3.270;2024-01-11T07:13:20;51.40;2227.20
16491;DHT22;8356;51.214;3.270;2024-01-11T07:15:46;51.30;2227.20
16491;DHT22;8356;51.214;3.270;2024-01-11T07:18:13;26.50;2201.60
16491;DHT22;8356;51.214;3.270;2024-01-11T07:20:39;51.40;2227.20
16491;DHT22;8356;51.214;3.270;2024-01-11T07:23:04;51.20;2227.20
16491;DHT22;8356;51.214;3.270;2024-01-11T07:25:30;26.50;2201.60
16491;DHT22;8356;51.214;3.270;2024-01-11T07:27:56;51.20;2227.20
16491;DHT22;8356;51.214;3.270;2024-01-11T07:30:21;51.30;2227.20
16491;DHT22;8356;51.214;3.270;2024-01-11T07:32:47;26.50;2201.60
16491;DHT22;8356;51.214;3.270;2024-01-11T07:35:14;26.40;2201.60
16491;DHT22;8356;51.214;3.270;2024-01-11T07:37:40;26.00;2201.60
16491;DHT22;8356;51.214;3.270;2024-01-11T07:40:06;25.70;2201.60
16491;DHT22;8356;51.214;3.270;2024-01-11T07:42:39;25.60;2201.60
16491;DHT22;8356;51.214;3.270;2024-01-11T07:45:06;25.80;2201.60
16491;DHT22;8356;51.214;3.270;2024-01-11T07:47:32;26.10;2201.60
16491;DHT22;8356;51.214;3.270;2024-01-11T07:49:58;26.10;2201.60
16491;DHT22;8356;51.214;3.270;2024-01-11T07:52:23;26.00;2201.60
16491;DHT22;8356;51.214;3.270;2024-01-11T07:54:49;25.70;2201.60
16491;DHT22;8356;51.214;3.270;2024-01-11T07:57:15;25.80;2201.60
16491;DHT22;8356;51.214;3.270;2024-01-11T07:59:40;26.10;2201.60
16491;DHT22;8356;51.214;3.270;2024-01-11T08:02:06;26.50;2201.60
16491;DHT22;8356;51.214;3.270;2024-01-11T08:04:32;51.30;2227.20
16491;DHT22;8356;51.214;3.270;2024-01-11T08:06:58;51.30;2227.20
16491;DHT22;8356;51.214;3.270;2024-01-11T08:09:28;26.50;2201.60
16491;DHT22;8356;51.214;3.270;2024-01-11T08:11:53;26.40;2201.60
16491;DHT22;8356;51.214;3.270;2024-01-11T08:14:20;51.20;2227.20
16491;DHT22;8356;51.214;3.270;2024-01-11T08:16:46;52.10;2227.20
16491;DHT22;8356;51.214;3.270;2024-01-11T08:19:11;26.30;2201.60
16491;DHT22;8356;51.214;3.270;2024-01-11T08:21:42;26.30;2201.60
16491;DHT22;8356;51.214;3.270;2024-01-11T08:24:08;26.40;2201.60
16491;DHT22;8356;51.214;3.270;2024-01-11T08:26:34;51.30;2227.20
16491;DHT22;8356;51.214;3.270;2024-01-11T08:28:59;51.50;2227.20
16491;DHT22;8356;51.214;3.270;2024-01-11T08:31:25;51.60;2227.20
16491;DHT22;8356;51.214;3.270;2024-01-11T08:33:51;51.50;2227.20
16491;DHT22;8356;51.214;3.270;2024-01-11T08:36:17;51.50;2227.20
16491;DHT22;8356;51.214;3.270;2024-01-11T08:38:42;51.60;2227.20
16491;DHT22;8356;51.214;3.270;2024-01-11T08:41:08;51.20;2227.20
16491;DHT22;8356;51.214;3.270;2024-01-11T08:43:34;26.50;2201.60
16491;DHT22;8356;51.214;3.270;2024-01-11T08:45:59;26.40;2201.60
16491;DHT22;8356;51.214;3.270;2024-01-11T08:48:27;51.30;2227.20
16491;DHT22;8356;51.214;3.270;2024-01-11T08:50:53;51.60;2227.20
16491;DHT22;8356;51.214;3.270;2024-01-11T08:53:19;51.80;2227.20
16491;DHT22;8356;51.214;3.270;2024-01-11T08:55:45;51.80;2227.20
16491;DHT22;8356;51.214;3.270;2024-01-11T08:58:11;51.60;2227.20
16491;DHT22;8356;51.214;3.270;2024-01-11T09:00:37;51.80;2227.20
16491;DHT22;8356;51.214;3.270;2024-01-11T09:03:03;51.80;2227.20
16491;DHT22;8356;51.214;3.270;2024-01-11T09:05:29;51.70;2227.20
16491;DHT22;8356;51.214;3.270;2024-01-11T09:07:54;51.70;2227.20
16491;DHT22;8356;51.214;3.270;2024-01-11T09:10:20;51.90;2227.20
16491;DHT22;8356;51.214;3.270;2024-01-11T09:12:46;52.10;2227.20
16491;DHT22;8356;51.214;3.270;2024-01-11T09:15:12;76.80;2227.20
16491;DHT22;8356;51.214;3.270;2024-01-11T09:17:38;76.90;2227.20
16491;DHT22;8356;51.214;3.270;2024-01-11T09:20:04;52.10;2227.20
16491;DHT22;8356;51.214;3.270;2024-01-11T09:22:30;77.20;2227.20
16491;DHT22;8356;51.214;3.270;2024-01-11T09:24:56;77.00;2227.20
16491;DHT22;8356;51.214;3.270;2024-01-11T09:27:21;77.00;2227.20
16491;DHT22;8356;51.214;3.270;2024-01-11T09:29:48;77.00;2227.20
16491;DHT22;8356;51.214;3.270;2024-01-11T09:32:14;76.90;2227.20
16491;DHT22;8356;51.214;3.270;2024-01-11T09:34:39;76.80;2227.20
16491;DHT22;8356;51.214;3.270;2024-01-11T09:37:05;76.80;2227.20
16491;DHT22;8356;51.214;3.270;2024-01-11T09:39:31;52.00;2227.20
16491;DHT22;8356;51.214;3.270;2024-01-11T09:42:07;51.90;2227.20
16491;DHT22;8356;51.214;3.270;2024-01-11T09:44:36;52.00;2227.20
16491;DHT22;8356;51.214;3.270;2024-01-11T09:47:04;76.80;2227.20
16491;DHT22;8356;51.214;3.270;2024-01-11T09:49:33;76.90;2227.20
16491;DHT22;8356;51.214;3.270;2024-01-11T09:52:00;77.00;2227.20
16491;DHT22;8356;51.214;3.270;2024-01-11T09:54:27;76.90;2227.20
16491;DHT22;8356;51.214;3.270;2024-01-11T09:56:54;76.90;2227.20
16491;DHT22;8356;51.214;3.270;2024-01-11T09:59:21;76.90;2227.20
16491;DHT22;8356;51.214;3.270;2024-01-11T10:01:49;76.90;2227.20
16491;DHT22;8356;51.214;3.270;2024-01-11T10:04:15;76.90;2227.20
16491;DHT22;8356;51.214;3.270;2024-01-11T10:06:42;76.80;2227.20
16491;DHT22;8356;51.214;3.270;2024-01-11T10:09:08;76.80;2227.20
16491;DHT22;8356;51.214;3.270;2024-01-11T10:11:34;76.80;2227.20
16491;DHT22;8356;51.214;3.270;2024-01-11T10:14:00;77.00;2227.20
16491;DHT22;8356;51.214;3.270;2024-01-11T10:16:28;77.00;2227.20
16491;DHT22;8356;51.214;3.270;2024-01-11T10:18:55;76.90;2227.20
16491;DHT22;8356;51.214;3.270;2024-01-11T10:21:21;77.10;2227.20
16491;DHT22;8356;51.214;3.270;2024-01-11T10:23:47;77.20;2227.20
16491;DHT22;8356;51.214;3.270;2024-01-11T10:26:15;77.30;2227.20
16491;DHT22;8356;51.214;3.270;2024-01-11T10:28:44;77.50;2227.20
16491;DHT22;8356;51.214;3.270;2024-01-11T10:31:10;102.60;2227.20
16491;DHT22;8356;51.214;3.270;2024-01-11T10:33:36;77.60;2227.20
16491;DHT22;8356;51.214;3.270;2024-01-11T10:36:03;102.40;2227.20
16491;DHT22;8356;51.214;3.270;2024-01-11T10:38:30;77.70;2227.20
16491;DHT22;8356;51.214;3.270;2024-01-11T10:41:00;102.40;2227.20
16491;DHT22;8356;51.214;3.270;2024-01-11T10:43:26;77.60;2227.20
16491;DHT22;8356;51.214;3.270;2024-01-11T10:45:54;77.60;2227.20
16491;DHT22;8356;51.214;3.270;2024-01-11T10:48:25;77.70;2227.20
16491;DHT22;8356;51.214;3.270;2024-01-11T10:50:55;77.60;2227.20
16491;DHT22;8356;51.214;3.270;2024-01-11T10:53:34;77.70;2227.20
16491;DHT22;8356;51.214;3.270;2024-01-11T10:56:03;102.40;2227.20
16491;DHT22;8356;51.214;3.270;2024-01-11T10:58:30;102.40;2227.20
16491;DHT22;8356;51.214;3.270;2024-01-11T11:00:57;102.40;2227.20
16491;DHT22;8356;51.214;3.270;2024-01-11T11:03:26;102.40;2227.20
16491;DHT22;8356;51.214;3.270;2024-01-11T11:05:54;102.50;2227.20
16491;DHT22;8356;51.214;3.270;2024-01-11T11:08:24;102.50;2227.20
16491;DHT22;8356;51.214;3.270;2024-01-11T11:11:02;102.60;2227.20
16491;DHT22;8356;51.214;3.270;2024-01-11T11:13:32;102.70;2227.20
16491;DHT22;8356;51.214;3.270;2024-01-11T11:15:58;102.90;2227.20
16491;DHT22;8356;51.214;3.270;2024-01-11T11:18:24;102.80;2227.20
16491;DHT22;8356;51.214;3.270;2024-01-11T11:20:50;102.70;2227.20
16491;DHT22;8356;51.214;3.270;2024-01-11T11:23:18;102.60;2227.20
16491;DHT22;8356;51.214;3.270;2024-01-11T11:25:48;102.80;2227.20
16491;DHT22;8356;51.214;3.270;2024-01-11T11:28:17;102.80;2227.20
16491;DHT22;8356;51.214;3.270;2024-01-11T11:30:44;102.80;2227.20
16491;DHT22;8356;51.214;3.270;2024-01-11T11:33:20;102.90;2227.20
16491;DHT22;8356;51.214;3.270;2024-01-11T11:35:52;103.20;2227.20
16491;DHT22;8356;51.214;3.270;2024-01-11T11:38:28;103.30;2227.20
16491;DHT22;8356;51.214;3.270;2024-01-11T11:40:56;128.00;2252.80
16491;DHT22;8356;51.214;3.270;2024-01-11T11:43:23;128.10;2252.80
16491;DHT22;8356;51.214;3.270;2024-01-11T11:45:50;128.10;2252.80
16491;DHT22;8356;51.214;3.270;2024-01-11T11:53:40;103.30;2227.20
16491;DHT22;8356;51.214;3.270;2024-01-11T11:56:07;103.20;2227.20
16491;DHT22;8356;51.214;3.270;2024-01-11T11:58:33;102.60;2227.20
16491;DHT22;8356;51.214;3.270;2024-01-11T12:01:00;128.00;2252.80
16491;DHT22;8356;51.214;3.270;2024-01-11T12:03:32;128.00;2252.80
16491;DHT22;8356;51.214;3.270;2024-01-11T12:05:58;128.10;2252.80
16491;DHT22;8356;51.214;3.270;2024-01-11T12:08:24;128.30;2252.80
16491;DHT22;8356;51.214;3.270;2024-01-11T12:10:51;128.20;2252.80
16491;DHT22;8356;51.214;3.270;2024-01-11T12:13:17;128.10;2252.80
16491;DHT22;8356;51.214;3.270;2024-01-11T12:15:43;128.20;2252.80
16491;DHT22;8356;51.214;3.270;2024-01-11T12:18:09;128.20;2252.80
16491;DHT22;8356;51.214;3.270;2024-01-11T12:20:35;128.20;2252.80
16491;DHT22;8356;51.214;3.270;2024-01-11T12:23:00;128.30;2252.80
16491;DHT22;8356;51.214;3.270;2024-01-11T12:25:28;128.20;2252.80
16491;DHT22;8356;51.214;3.270;2024-01-11T12:27:55;128.10;2252.80
16491;DHT22;8356;51.214;3.270;2024-01-11T12:30:26;128.30;2252.80
16491;DHT22;8356;51.214;3.270;2024-01-11T12:32:56;128.30;2252.80
16491;DHT22;8356;51.214;3.270;2024-01-11T12:35:22;128.20;2252.80
16491;DHT22;8356;51.214;3.270;2024-01-11T12:38:04;128.10;2252.80
16491;DHT22;8356;51.214;3.270;2024-01-11T12:40:37;128.10;2252.80
16491;DHT22;8356;51.214;3.270;2024-01-11T12:43:06;128.10;2252.80
16491;DHT22;8356;51.214;3.270;2024-01-11T12:45:34;128.00;2252.80
16491;DHT22;8356;51.214;3.270;2024-01-11T12:48:00;128.00;2252.80
16491;DHT22;8356;51.214;3.270;2024-01-11T12:50:27;128.10;2252.80
16491;DHT22;8356;51.214;3.270;2024-01-11T12:53:13;128.50;2252.80
16491;DHT22;8356;51.214;3.270;2024-01-11T12:55:48;128.00;2252.80
16491;DHT22;8356;51.214;3.270;2024-01-11T12:58:19;128.00;2252.80
16491;DHT22;8356;51.214;3.270;2024-01-11T13:00:46;103.30;2227.20
16491;DHT22;8356;51.214;3.270;2024-01-11T13:03:12;103.30;2227.20
16491;DHT22;8356;51.214;3.270;2024-01-11T13:05:38;103.30;2227.20
16491;DHT22;8356;51.214;3.270;2024-01-11T13:08:10;103.30;2227.20
16491;DHT22;8356;51.214;3.270;2024-01-11T13:10:36;103.20;2227.20
16491;DHT22;8356;51.214;3.270;2024-01-11T13:13:03;103.20;2227.20
16491;DHT22;8356;51.214;3.270;2024-01-11T13:15:28;103.20;2227.20
16491;DHT22;8356;51.214;3.270;2024-01-11T13:17:55;103.20;2227.20
16491;DHT22;8356;51.214;3.270;2024-01-11T13:20:22;103.20;2227.20
16491;DHT22;8356;51.214;3.270;2024-01-11T13:22:49;103.30;2227.20
16491;DHT22;8356;51.214;3.270;2024-01-11T13:25:14;103.30;2227.20
16491;DHT22;8356;51.214;3.270;2024-01-11T13:27:40;128.00;2252.80
16491;DHT22;8356;51.214;3.270;2024-01-11T13:30:06;128.00;2252.80
16491;DHT22;8356;51.214;3.270;2024-01-11T13:32:34;128.20;2252.80
16491;DHT22;8356;51.214;3.270;2024-01-11T13:34:59;128.50;2252.80
16491;DHT22;8356;51.214;3.270;2024-01-11T13:37:25;128.20;2252.80
16491;DHT22;8356;51.214;3.270;2024-01-11T13:39:51;128.50;2252.80
16491;DHT22;8356;51.214;3.270;2024-01-11T13:42:16;128.40;2252.80
16491;DHT22;8356;51.214;3.270;2024-01-11T13:44:42;128.30;2252.80
16491;DHT22;8356;51.214;3.270;2024-01-11T13:47:07;128.40;2252.80
16491;DHT22;8356;51.214;3.270;2024-01-11T13:49:33;128.40;2252.80
16491;DHT22;8356;51.214;3.270;2024-01-11T13:52:00;128.40;2252.80
16491;DHT22;8356;51.214;3.270;2024-01-11T13:54:25;128.40;2252.80
16491;DHT22;8356;51.214;3.270;2024-01-11T13:56:51;128.60;2252.80
16491;DHT22;8356;51.214;3.270;2024-01-11T13:59:18;128.70;2252.80
16491;DHT22;8356;51.214;3.270;2024-01-11T14:01:43;128.70;2252.80
16491;DHT22;8356;51.214;3.270;2024-01-11T14:04:09;128.90;2252.80
16491;DHT22;8356;51.214;3.270;2024-01-11T14:06:35;153.70;2252.80
16491;DHT22;8356;51.214;3.270;2024-01-11T14:09:00;128.80;2252.80
16491;DHT22;8356;51.214;3.270;2024-01-11T14:11:28;128.70;2252.80
16491;DHT22;8356;51.214;3.270;2024-01-11T14:13:54;128.80;2252.80
16491;DHT22;8356;51.214;3.270;2024-01-11T14:16:19;153.70;2252.80
16491;DHT22;8356;51.214;3.270;2024-01-11T14:18:46;128.50;2252.80
16491;DHT22;8356;51.214;3.270;2024-01-11T14:21:12;128.60;2252.80
16491;DHT22;8356;51.214;3.270;2024-01-11T14:23:38;128.70;2252.80
16491;DHT22;8356;51.214;3.270;2024-01-11T14:26:03;128.70;2252.80
16491;DHT22;8356;51.214;3.270;2024-01-11T14:28:29;128.90;2252.80
16491;DHT22;8356;51.214;3.270;2024-01-11T14:30:55;153.60;2252.80
16491;DHT22;8356;51.214;3.270;2024-01-11T14:33:21;128.90;2252.80
16491;DHT22;8356;51.214;3.270;2024-01-11T14:35:46;128.80;2252.80
16491;DHT22;8356;51.214;3.270;2024-01-11T14:38:12;153.60;2252.80
16491;DHT22;8356;51.214;3.270;2024-01-11T14:40:38;153.90;2252.80
16491;DHT22;8356;51.214;3.270;2024-01-11T14:43:04;154.10;2252.80
16491;DHT22;8356;51.214;3.270;2024-01-11T14:45:30;153.90;2252.80
16491;DHT22;8356;51.214;3.270;2024-01-11T14:47:56;153.80;2252.80
16491;DHT22;8356;51.214;3.270;2024-01-11T14:50:21;153.80;2252.80
16491;DHT22;8356;51.214;3.270;2024-01-11T14:52:47;153.70;2252.80
16491;DHT22;8356;51.214;3.270;2024-01-11T14:55:13;153.90;2252.80
16491;DHT22;8356;51.214;3.270;2024-01-11T14:57:39;153.80;2252.80
16491;DHT22;8356;51.214;3.270;2024-01-11T15:00:06;153.80;2252.80
16491;DHT22;8356;51.214;3.270;2024-01-11T15:02:33;153.70;2252.80
16491;DHT22;8356;51.214;3.270;2024-01-11T15:04:59;153.60;2252.80
16491;DHT22;8356;51.214;3.270;2024-01-11T15:07:25;153.70;2252.80
16491;DHT22;8356;51.214;3.270;2024-01-11T15:09:51;153.90;2252.80
16491;DHT22;8356;51.214;3.270;2024-01-11T15:12:17;153.90;2252.80
16491;DHT22;8356;51.214;3.270;2024-01-11T15:14:42;153.90;2252.80
16491;DHT22;8356;51.214;3.270;2024-01-11T15:17:08;153.80;2252.80